Time;durP1;ratioP1;P1;durP2;ratioP2;P2;SDS_P1;SDS_P2;PMS_P1;PMS_P2;Temp;Humidity;BMP_temperature;BMP_pressure;BME280_temperature;BME280_humidity;BME280_pressure;Samples;Min_cycle;Max_cycle;Signal;HPM_P1;HPM_P2
2022/12/12 00:00:52;;;;;;;57.78;25.98;;;4.80;99.90;;;;;;5017280;28;20147;-85
2022/12/12 00:03:20;;;;;;;58.30;26.42;;;4.80;99.90;;;;;;5023122;28;20121;-85
2022/12/12 00:05:47;;;;;;;58.30;27.30;;;4.80;99.90;;;;;;5016888;28;20038;-86
2022/12/12 00:08:14;;;;;;;58.88;27.05;;;4.80;99.90;;;;;;5017049;28;20038;-85
2022/12/12 00:10:41;;;;;;;60.92;26.70;;;4.80;99.90;;;;;;5005574;28;20102;-85
2022/12/12 00:13:08;;;;;;;60.80;27.83;;;4.70;99.90;;;;;;5022527;28;20357;-85
2022/12/12 00:15:35;;;;;;;61.75;27.30;;;4.80;99.90;;;;;;5020276;28;20042;-86
2022/12/12 00:18:02;;;;;;;57.90;28.00;;;4.80;99.90;;;;;;5014817;28;20033;-86
2022/12/12 00:20:30;;;;;;;62.08;29.55;;;4.80;99.90;;;;;;5013850;28;20548;-86
2022/12/12 00:22:57;;;;;;;56.20;26.92;;;4.70;99.90;;;;;;5024832;28;20490;-86
2022/12/12 00:25:24;;;;;;;57.95;26.98;;;4.70;99.90;;;;;;4994042;28;20045;-85
2022/12/12 00:27:51;;;;;;;60.08;27.13;;;4.70;99.90;;;;;;5021957;28;20040;-86
2022/12/12 00:30:18;;;;;;;58.90;27.13;;;4.70;99.90;;;;;;5007788;28;20421;-85
2022/12/12 00:32:45;;;;;;;57.78;26.75;;;4.70;99.90;;;;;;5030410;28;20042;-85
2022/12/12 00:35:12;;;;;;;58.28;27.05;;;4.80;99.90;;;;;;5020804;28;20398;-85
2022/12/12 00:37:40;;;;;;;60.42;27.00;;;4.80;99.90;;;;;;5031605;28;20041;-85
2022/12/12 00:40:08;;;;;;;62.80;27.70;;;4.70;99.90;;;;;;5017323;28;20065;-85
2022/12/12 00:42:35;;;;;;;57.22;26.17;;;4.70;99.90;;;;;;5020751;28;20126;-86
2022/12/12 00:45:03;;;;;;;55.30;25.42;;;4.70;99.90;;;;;;5011611;28;20038;-85
2022/12/12 00:47:30;;;;;;;57.78;26.40;;;4.70;99.90;;;;;;5027150;28;20044;-86
2022/12/12 00:49:57;;;;;;;54.13;26.30;;;4.70;99.90;;;;;;5028818;28;20069;-86
2022/12/12 00:52:24;;;;;;;54.72;25.67;;;4.70;99.90;;;;;;5025079;28;20045;-86
2022/12/12 00:54:52;;;;;;;55.58;26.30;;;4.70;99.90;;;;;;5012926;28;20546;-86
2022/12/12 00:57:19;;;;;;;57.17;25.83;;;4.70;99.90;;;;;;5021486;28;20045;-85
2022/12/12 00:59:49;;;;;;;57.20;26.15;;;4.70;99.90;;;;;;5020669;28;20056;-85
2022/12/12 01:02:16;;;;;;;58.47;25.95;;;4.80;99.90;;;;;;4998523;28;20041;-85
2022/12/12 01:04:42;;;;;;;55.58;26.25;;;4.80;99.90;;;;;;5030567;28;20494;-85
2022/12/12 01:07:12;;;;;;;57.35;26.73;;;4.80;99.90;;;;;;5024203;28;20824;-86
2022/12/12 01:09:38;;;;;;;60.63;27.13;;;4.80;99.90;;;;;;5007712;28;20056;-85
2022/12/12 01:12:07;;;;;;;55.50;26.27;;;4.80;99.90;;;;;;5021856;28;20398;-86
2022/12/12 01:14:34;;;;;;;56.03;26.63;;;4.80;99.90;;;;;;5024466;28;20155;-86
2022/12/12 01:17:01;;;;;;;58.97;27.05;;;4.80;99.90;;;;;;5011452;28;20038;-85
2022/12/12 01:19:28;;;;;;;50.10;24.27;;;4.80;99.90;;;;;;5019168;28;20308;-86
2022/12/12 01:21:55;;;;;;;57.13;26.20;;;4.80;99.90;;;;;;5015759;28;20052;-85
2022/12/12 01:24:22;;;;;;;54.80;25.90;;;4.80;99.90;;;;;;5029405;28;20060;-86
2022/12/12 01:26:49;;;;;;;57.70;26.48;;;4.80;99.90;;;;;;4994318;28;20572;-86
2022/12/12 01:29:17;;;;;;;58.40;26.40;;;4.80;99.90;;;;;;5021322;28;20034;-85
2022/12/12 01:31:44;;;;;;;48.75;23.10;;;4.80;99.90;;;;;;5019194;28;20139;-85
2022/12/12 01:34:11;;;;;;;57.03;25.15;;;4.80;99.90;;;;;;5012354;28;20120;-86
2022/12/12 01:36:38;;;;;;;50.72;24.50;;;4.80;99.90;;;;;;5010840;28;20054;-85
2022/12/12 01:39:05;;;;;;;50.70;24.08;;;4.80;99.90;;;;;;5023927;28;20041;-86
2022/12/12 01:41:32;;;;;;;48.38;24.10;;;4.80;99.90;;;;;;5029190;28;20052;-86
2022/12/12 01:44:00;;;;;;;55.38;25.10;;;4.80;99.90;;;;;;5012185;28;20053;-86
2022/12/12 01:46:39;;;;;;;54.17;25.25;;;4.80;99.90;;;;;;5022473;28;20045;-85
2022/12/12 01:49:16;;;;;;;56.22;24.75;;;4.80;99.90;;;;;;4995925;28;20053;-85
2022/12/12 01:51:43;;;;;;;51.53;23.80;;;4.80;99.90;;;;;;4999743;28;20212;-86
2022/12/12 01:54:13;;;;;;;53.90;24.88;;;4.80;99.90;;;;;;5020230;28;20049;-86
2022/12/12 01:56:42;;;;;;;50.97;24.00;;;4.80;99.90;;;;;;5018363;28;20045;-86
2022/12/12 01:59:11;;;;;;;49.20;24.35;;;4.80;99.90;;;;;;5029975;28;20037;-85
2022/12/12 02:01:40;;;;;;;49.20;23.02;;;4.80;99.90;;;;;;5030240;28;20084;-86
2022/12/12 02:04:07;;;;;;;54.10;25.02;;;4.80;99.90;;;;;;5026127;28;20041;-86
2022/12/12 02:06:35;;;;;;;50.35;23.52;;;4.80;99.90;;;;;;5026716;28;20087;-85
2022/12/12 02:09:05;;;;;;;51.08;24.40;;;4.80;99.90;;;;;;5024756;28;20038;-86
2022/12/12 02:11:33;;;;;;;51.97;24.08;;;4.80;99.90;;;;;;5019960;28;20055;-86
2022/12/12 02:14:00;;;;;;;50.63;23.08;;;4.70;99.90;;;;;;5010410;28;20058;-86
2022/12/12 02:16:37;;;;;;;57.90;25.70;;;4.80;99.90;;;;;;5044498;22;20034;-89
2022/12/12 02:19:15;;;;;;;50.50;24.00;;;4.80;99.90;;;;;;4979272;28;20062;-91
2022/12/12 02:21:46;;;;;;;48.35;23.23;;;4.80;99.90;;;;;;4973165;28;20132;-92
2022/12/12 02:24:34;;;;;;;47.80;23.77;;;4.80;99.90;;;;;;4989124;28;20553;-90
2022/12/12 02:27:41;;;;;;;47.33;22.02;;;4.80;99.90;;;;;;4999810;28;20057;-90
2022/12/12 02:30:15;;;;;;;45.13;21.70;;;4.80;99.90;;;;;;4893828;29;20135;-91
2022/12/12 02:33:02;;;;;;;49.83;23.17;;;4.70;99.90;;;;;;4950940;28;20129;-91
2022/12/12 02:35:34;;;;;;;49.80;23.95;;;4.70;99.90;;;;;;4966978;28;20156;-92
2022/12/12 02:38:05;;;;;;;48.08;23.48;;;4.70;99.90;;;;;;4992382;28;20113;-91
2022/12/12 02:40:38;;;;;;;49.92;22.73;;;4.70;99.90;;;;;;5009669;28;20042;-90
2022/12/12 02:43:12;;;;;;;45.90;21.85;;;4.70;99.90;;;;;;4988758;28;20042;-91
2022/12/12 02:45:40;;;;;;;47.17;22.38;;;4.70;99.90;;;;;;4987880;28;20070;-91
2022/12/12 02:48:15;;;;;;;46.63;22.63;;;4.70;99.90;;;;;;4981411;28;20035;-90
2022/12/12 02:50:44;;;;;;;51.13;23.88;;;4.70;99.90;;;;;;4993152;28;20057;-90
2022/12/12 02:53:11;;;;;;;50.67;23.10;;;4.70;99.90;;;;;;4988344;28;20054;-91
2022/12/12 02:55:38;;;;;;;50.05;24.10;;;4.70;99.90;;;;;;4990010;28;20046;-91
2022/12/12 02:58:05;;;;;;;50.05;22.98;;;4.70;99.90;;;;;;4989598;28;20034;-91
2022/12/12 03:00:39;;;;;;;40.75;21.88;;;4.70;99.90;;;;;;4988648;28;20100;-90
2022/12/12 03:09:34;;;;;;;46.17;22.60;;;4.60;99.90;;;;;;4967094;28;20046;-91
2022/12/12 03:12:04;;;;;;;45.25;21.38;;;4.60;99.90;;;;;;4972229;28;20422;-91
2022/12/12 03:14:39;;;;;;;48.55;22.27;;;4.60;99.90;;;;;;4988548;28;20134;-90
2022/12/12 03:17:10;;;;;;;45.88;21.40;;;4.60;99.90;;;;;;4989828;28;20043;-91
2022/12/12 03:19:44;;;;;;;43.47;21.15;;;4.60;99.90;;;;;;4988994;28;20038;-90
2022/12/12 03:22:16;;;;;;;45.28;22.27;;;4.60;99.90;;;;;;4954448;28;20050;-90
2022/12/12 03:24:47;;;;;;;47.65;22.52;;;4.60;99.90;;;;;;4990705;28;20058;-91
2022/12/12 03:27:18;;;;;;;45.10;22.48;;;4.60;99.90;;;;;;4975174;28;20414;-91
2022/12/12 03:29:48;;;;;;;48.80;22.52;;;4.60;99.90;;;;;;4987489;28;20598;-90
2022/12/12 03:32:18;;;;;;;48.22;22.00;;;4.60;99.90;;;;;;4959483;28;20578;-91
2022/12/12 03:34:49;;;;;;;46.25;22.60;;;4.60;99.90;;;;;;4982057;28;20042;-90
2022/12/12 03:37:19;;;;;;;48.40;24.70;;;4.60;99.90;;;;;;4999140;28;20128;-90
2022/12/12 03:39:50;;;;;;;44.83;21.63;;;4.60;99.90;;;;;;4988211;28;20499;-91
2022/12/12 03:42:22;;;;;;;46.58;21.80;;;4.60;99.90;;;;;;4985919;28;20062;-90
2022/12/12 03:44:52;;;;;;;47.08;21.92;;;4.50;99.90;;;;;;4991027;28;20042;-89
2022/12/12 03:47:23;;;;;;;45.50;22.00;;;4.60;99.90;;;;;;4989447;28;20055;-90
2022/12/12 03:49:56;;;;;;;48.92;22.50;;;4.60;99.90;;;;;;4996631;28;20077;-91
2022/12/12 03:52:26;;;;;;;41.40;20.80;;;4.80;99.90;;;;;;5005501;28;20108;-92
2022/12/12 03:54:56;;;;;;;45.30;21.48;;;4.60;99.90;;;;;;4993000;28;20046;-91
2022/12/12 03:57:27;;;;;;;46.03;21.07;;;4.60;99.90;;;;;;4981561;28;20038;-91
2022/12/12 03:59:57;;;;;;;42.70;21.50;;;4.60;99.90;;;;;;4994056;28;20321;-91
2022/12/12 04:02:30;;;;;;;43.73;20.93;;;4.60;99.90;;;;;;4977147;28;20528;-90
2022/12/12 04:05:02;;;;;;;43.33;22.05;;;4.60;99.90;;;;;;4991830;28;20046;-91
2022/12/12 04:07:40;;;;;;;45.25;21.55;;;4.60;99.90;;;;;;4993418;28;20125;-90
2022/12/12 04:13:02;;;;;;;47.47;22.80;;;4.60;99.90;;;;;;4973411;28;20065;-91
2022/12/12 04:15:46;;;;;;;46.58;21.15;;;4.60;99.90;;;;;;4992540;28;20046;-91
2022/12/12 04:18:19;;;;;;;44.38;21.38;;;4.60;99.90;;;;;;4974549;28;20046;-90
2022/12/12 04:23:48;;;;;;;42.50;20.90;;;4.60;99.90;;;;;;4989562;28;20060;-90
2022/12/12 04:29:13;;;;;;;44.05;20.67;;;4.60;99.90;;;;;;4993681;28;20505;-90
2022/12/12 04:31:44;;;;;;;46.13;21.25;;;4.60;99.90;;;;;;4992912;28;20066;-91
2022/12/12 04:34:15;;;;;;;40.28;19.85;;;4.50;99.90;;;;;;4988309;28;20499;-90
2022/12/12 04:36:44;;;;;;;43.10;20.98;;;4.50;99.90;;;;;;4962531;28;20214;-90
2022/12/12 04:39:13;;;;;;;44.75;20.80;;;4.50;99.90;;;;;;4974596;28;20133;-90
2022/12/12 04:41:41;;;;;;;44.38;21.35;;;4.50;99.90;;;;;;4989201;28;20056;-90
2022/12/12 04:44:10;;;;;;;44.45;21.65;;;4.50;99.90;;;;;;4990249;28;20495;-92
2022/12/12 04:46:39;;;;;;;40.85;20.90;;;4.50;99.90;;;;;;4999382;28;20117;-91
2022/12/12 04:49:10;;;;;;;44.72;21.50;;;4.50;99.90;;;;;;4972887;28;20035;-91
2022/12/12 04:51:41;;;;;;;40.97;20.60;;;4.40;99.90;;;;;;5002505;28;20046;-90
2022/12/12 04:54:15;;;;;;;42.10;20.60;;;4.40;99.90;;;;;;4992402;28;20531;-91
2022/12/12 04:56:44;;;;;;;39.88;20.05;;;4.40;99.90;;;;;;4991897;28;20066;-90
2022/12/12 04:59:11;;;;;;;45.70;21.15;;;4.40;99.90;;;;;;4975912;28;20038;-90
2022/12/12 05:01:42;;;;;;;44.00;20.52;;;4.40;99.90;;;;;;4989567;28;20039;-90
2022/12/12 05:04:13;;;;;;;40.25;20.17;;;4.40;99.90;;;;;;4984197;28;20495;-90
2022/12/12 05:06:43;;;;;;;38.60;19.60;;;4.30;99.90;;;;;;4995264;28;20046;-92
2022/12/12 05:09:12;;;;;;;41.78;20.55;;;4.30;99.90;;;;;;4989904;28;20052;-89
2022/12/12 05:11:39;;;;;;;40.00;19.25;;;4.30;99.90;;;;;;4991443;28;20448;-90
2022/12/12 05:14:08;;;;;;;43.00;19.25;;;4.30;99.90;;;;;;4966280;28;20128;-90
2022/12/12 05:16:39;;;;;;;47.33;21.40;;;4.30;99.90;;;;;;4998912;28;20104;-90
2022/12/12 05:19:06;;;;;;;44.28;20.63;;;4.30;99.90;;;;;;4984271;28;20043;-90
2022/12/12 05:21:33;;;;;;;42.22;21.35;;;4.30;99.90;;;;;;4991141;28;20092;-91
2022/12/12 05:24:00;;;;;;;40.60;20.65;;;4.30;99.90;;;;;;4995145;28;20042;-90
2022/12/12 05:26:29;;;;;;;43.83;20.35;;;4.30;99.90;;;;;;4973748;28;20720;-90
2022/12/12 05:28:57;;;;;;;39.78;19.38;;;4.30;99.90;;;;;;4990723;28;20046;-91
2022/12/12 05:31:24;;;;;;;41.38;20.30;;;4.30;99.90;;;;;;4994988;28;20042;-90
2022/12/12 05:33:51;;;;;;;41.63;20.17;;;4.30;99.90;;;;;;4988588;28;20041;-91
2022/12/12 05:36:19;;;;;;;45.80;20.13;;;4.30;99.90;;;;;;4990987;28;20042;-90
2022/12/12 05:38:46;;;;;;;40.55;20.88;;;4.30;99.90;;;;;;4991213;28;20048;-90
2022/12/12 05:41:14;;;;;;;41.85;19.95;;;4.30;99.90;;;;;;4991128;28;20034;-90
2022/12/12 05:43:43;;;;;;;43.17;20.77;;;4.30;99.90;;;;;;4999484;28;20042;-91
2022/12/12 05:46:09;;;;;;;43.80;20.98;;;4.20;99.90;;;;;;4998101;28;20121;-90
2022/12/12 05:48:36;;;;;;;43.67;21.67;;;4.20;99.90;;;;;;4990918;28;20046;-92
2022/12/12 05:51:04;;;;;;;40.80;20.13;;;4.20;99.90;;;;;;4986299;28;20047;-92
2022/12/12 05:53:31;;;;;;;42.13;20.70;;;4.20;99.90;;;;;;4990872;28;20054;-92
2022/12/12 05:55:58;;;;;;;41.10;20.67;;;4.20;99.90;;;;;;4974427;28;20054;-84
2022/12/12 05:58:25;;;;;;;42.53;20.25;;;4.20;99.90;;;;;;4977798;28;20054;-87
2022/12/12 06:00:54;;;;;;;45.47;19.85;;;4.20;99.90;;;;;;4988955;28;20042;-84
2022/12/12 06:03:20;;;;;;;39.53;20.20;;;4.20;99.90;;;;;;4989408;28;20057;-88
2022/12/12 06:05:48;;;;;;;45.97;22.52;;;4.20;99.90;;;;;;4988888;28;20429;-87
2022/12/12 06:08:15;;;;;;;40.63;20.40;;;4.20;99.90;;;;;;4989328;28;20066;-87
2022/12/12 06:10:44;;;;;;;46.53;22.27;;;4.10;99.90;;;;;;4990195;28;20521;-86
2022/12/12 06:13:11;;;;;;;43.97;20.55;;;4.10;99.90;;;;;;4983090;28;20053;-88
2022/12/12 06:15:39;;;;;;;43.67;21.02;;;4.10;99.90;;;;;;4990228;28;20058;-88
2022/12/12 06:18:08;;;;;;;40.83;20.45;;;4.10;99.90;;;;;;4987607;28;20053;-88
2022/12/12 06:20:35;;;;;;;47.00;21.33;;;4.10;99.90;;;;;;4972553;28;20046;-87
2022/12/12 06:23:02;;;;;;;41.97;19.65;;;4.10;99.90;;;;;;4971359;28;20046;-86
2022/12/12 06:25:30;;;;;;;41.13;20.95;;;4.10;99.90;;;;;;4990210;28;20130;-87
2022/12/12 06:27:57;;;;;;;43.63;21.48;;;4.10;99.90;;;;;;4990332;28;20046;-89
2022/12/12 06:30:23;;;;;;;42.05;20.60;;;4.10;99.90;;;;;;4982524;28;20042;-86
2022/12/12 06:32:50;;;;;;;42.10;20.85;;;4.10;99.90;;;;;;4988327;28;20560;-87
2022/12/12 06:35:19;;;;;;;42.03;21.10;;;4.10;99.90;;;;;;4989596;28;20100;-87
2022/12/12 06:37:47;;;;;;;40.60;20.63;;;4.00;99.90;;;;;;4989341;28;20054;-87
2022/12/12 06:40:14;;;;;;;42.03;20.35;;;4.00;99.90;;;;;;4989578;28;20046;-86
2022/12/12 06:42:41;;;;;;;43.13;21.45;;;4.00;99.90;;;;;;4990000;28;20048;-87
2022/12/12 06:45:09;;;;;;;41.05;19.95;;;4.00;99.90;;;;;;4976476;28;20121;-89
2022/12/12 06:47:36;;;;;;;40.63;19.33;;;3.90;99.90;;;;;;4988703;28;20046;-87
2022/12/12 06:50:03;;;;;;;43.03;21.73;;;3.90;99.90;;;;;;4987331;28;20038;-89
2022/12/12 06:52:32;;;;;;;40.08;20.45;;;3.90;99.90;;;;;;4987221;28;20053;-93
2022/12/12 06:54:59;;;;;;;43.55;21.33;;;3.80;99.90;;;;;;4988976;28;20415;-86
2022/12/12 06:57:26;;;;;;;43.70;20.60;;;3.80;99.90;;;;;;4989509;28;20061;-83
2022/12/12 06:59:53;;;;;;;39.63;19.63;;;3.80;99.90;;;;;;4981100;28;20038;-84
2022/12/12 07:02:20;;;;;;;37.90;19.58;;;3.80;99.90;;;;;;4989439;28;20503;-84
2022/12/12 07:04:47;;;;;;;38.88;18.77;;;3.80;99.90;;;;;;4989355;28;20411;-84
2022/12/12 07:07:14;;;;;;;42.25;21.17;;;3.80;99.90;;;;;;4989700;28;20046;-84
2022/12/12 07:09:42;;;;;;;38.88;18.92;;;3.70;99.90;;;;;;4989762;28;20034;-86
2022/12/12 07:12:09;;;;;;;40.92;19.30;;;3.70;99.90;;;;;;4970841;28;20053;-85
2022/12/12 07:14:39;;;;;;;43.42;21.40;;;3.70;99.90;;;;;;4971603;28;20039;-86
2022/12/12 07:17:06;;;;;;;42.25;21.38;;;3.70;99.90;;;;;;4989315;28;20077;-84
2022/12/12 07:19:33;;;;;;;46.35;23.55;;;3.60;99.90;;;;;;4989939;28;20057;-85
2022/12/12 07:22:00;;;;;;;48.50;24.90;;;3.60;99.90;;;;;;4989752;28;20120;-86
2022/12/12 07:24:27;;;;;;;50.60;25.80;;;3.60;99.90;;;;;;4988804;28;20414;-86
2022/12/12 07:26:55;;;;;;;48.95;24.05;;;3.60;99.90;;;;;;4989006;28;20050;-84
2022/12/12 07:29:22;;;;;;;44.88;21.75;;;3.60;99.90;;;;;;4988639;28;20056;-84
2022/12/12 07:31:49;;;;;;;43.90;21.92;;;3.60;99.90;;;;;;4972310;28;20604;-83
2022/12/12 07:34:16;;;;;;;42.20;21.40;;;3.60;99.90;;;;;;4992929;28;20039;-82
2022/12/12 07:36:43;;;;;;;43.05;21.33;;;3.60;99.90;;;;;;4993301;28;20049;-83
2022/12/12 07:39:10;;;;;;;42.75;20.98;;;3.50;99.90;;;;;;4993508;28;20047;-83
2022/12/12 07:41:36;;;;;;;43.00;21.23;;;3.50;99.90;;;;;;4990514;28;20043;-84
2022/12/12 07:44:06;;;;;;;43.92;20.67;;;3.50;99.90;;;;;;4985047;28;20042;-82
2022/12/12 07:46:33;;;;;;;41.65;21.85;;;3.50;99.90;;;;;;4973814;28;20644;-84
2022/12/12 07:49:00;;;;;;;44.47;22.25;;;3.50;99.90;;;;;;4991983;28;20050;-85
2022/12/12 07:51:27;;;;;;;44.33;22.17;;;3.50;99.90;;;;;;4990952;28;20050;-84
2022/12/12 07:53:54;;;;;;;47.30;22.10;;;3.50;99.90;;;;;;4991916;28;20504;-84
2022/12/12 07:56:21;;;;;;;45.15;23.50;;;3.60;99.90;;;;;;4993204;28;20403;-85
2022/12/12 07:58:48;;;;;;;45.70;23.40;;;3.50;99.90;;;;;;4992037;28;20499;-87
2022/12/12 08:01:18;;;;;;;47.75;24.52;;;3.50;99.90;;;;;;4994396;28;20117;-84
2022/12/12 08:03:49;;;;;;;47.35;23.45;;;3.50;99.90;;;;;;4993324;28;20533;-84
2022/12/12 08:06:16;;;;;;;41.83;21.75;;;3.50;99.90;;;;;;4992371;28;20177;-83
2022/12/12 08:08:44;;;;;;;40.72;20.98;;;3.50;99.90;;;;;;4977990;28;20049;-83
2022/12/12 08:11:12;;;;;;;43.85;21.48;;;3.60;99.90;;;;;;5003444;28;20038;-87
2022/12/12 08:13:40;;;;;;;46.03;22.85;;;3.60;99.90;;;;;;5009913;28;20122;-89
2022/12/12 08:16:12;;;;;;;46.63;22.67;;;3.60;99.90;;;;;;4990977;28;20125;-86
2022/12/12 08:18:40;;;;;;;44.88;22.65;;;3.50;99.90;;;;;;4993858;28;20054;-91
2022/12/12 08:21:08;;;;;;;48.10;22.85;;;3.40;99.90;;;;;;4973275;28;20111;-88
2022/12/12 08:23:35;;;;;;;43.30;21.25;;;3.50;99.90;;;;;;4967174;28;20065;-84
2022/12/12 08:26:04;;;;;;;43.65;21.58;;;3.50;99.90;;;;;;4975248;28;20423;-85
2022/12/12 08:28:31;;;;;;;45.67;22.02;;;3.50;99.90;;;;;;4992539;28;20077;-86
2022/12/12 08:30:58;;;;;;;41.90;21.83;;;3.40;99.90;;;;;;4989614;28;20039;-88
2022/12/12 08:33:25;;;;;;;51.05;21.88;;;3.40;99.90;;;;;;4991157;28;20077;-85
2022/12/12 08:35:53;;;;;;;51.95;22.38;;;3.40;99.90;;;;;;4992494;28;20513;-83
2022/12/12 08:38:20;;;;;;;59.25;23.90;;;3.40;99.90;;;;;;5005498;28;20121;-83
2022/12/12 08:40:47;;;;;;;65.28;21.98;;;3.40;99.90;;;;;;4993753;28;20122;-82
2022/12/12 08:43:14;;;;;;;56.88;24.30;;;3.50;99.90;;;;;;4991936;28;20046;-83
2022/12/12 08:45:42;;;;;;;46.60;23.15;;;3.50;99.90;;;;;;4991368;28;20047;-83
2022/12/12 08:48:10;;;;;;;50.80;23.80;;;3.50;99.90;;;;;;4990772;28;20046;-83
2022/12/12 08:50:40;;;;;;;47.78;23.00;;;3.50;99.90;;;;;;4990836;28;20039;-83
2022/12/12 08:53:08;;;;;;;47.33;23.38;;;3.50;99.90;;;;;;4991685;28;20047;-83
2022/12/12 08:55:35;;;;;;;50.63;24.90;;;3.50;99.90;;;;;;4992002;28;20096;-83
2022/12/12 08:58:02;;;;;;;47.90;22.85;;;3.50;99.90;;;;;;4991023;28;20042;-83
2022/12/12 09:00:29;;;;;;;43.22;22.75;;;3.50;99.90;;;;;;4991503;28;20070;-83
2022/12/12 09:02:56;;;;;;;53.70;24.95;;;3.50;99.90;;;;;;4991096;28;20054;-83
2022/12/12 09:05:23;;;;;;;47.95;24.38;;;3.50;99.90;;;;;;4991487;28;20578;-83
2022/12/12 09:07:50;;;;;;;49.90;23.83;;;3.50;99.90;;;;;;4991785;28;20058;-83
2022/12/12 09:10:19;;;;;;;48.08;24.95;;;3.50;99.90;;;;;;4974396;28;20559;-83
2022/12/12 09:12:45;;;;;;;49.28;23.90;;;3.60;99.90;;;;;;4990869;28;20054;-83
2022/12/12 09:15:13;;;;;;;49.15;24.38;;;3.50;99.90;;;;;;4991271;28;20564;-83
2022/12/12 09:17:40;;;;;;;47.45;24.02;;;3.60;99.90;;;;;;4990933;28;20050;-82
2022/12/12 09:20:07;;;;;;;46.15;22.75;;;3.60;99.90;;;;;;4990463;28;20494;-83
2022/12/12 09:22:34;;;;;;;55.25;24.58;;;3.60;99.90;;;;;;4973394;28;20060;-83
2022/12/12 09:25:01;;;;;;;50.22;24.17;;;3.60;99.90;;;;;;4989102;28;20138;-83
2022/12/12 09:27:30;;;;;;;46.75;22.98;;;3.60;99.90;;;;;;4985562;28;20121;-83
2022/12/12 09:29:56;;;;;;;49.20;23.60;;;3.60;99.90;;;;;;4989406;28;20121;-83
2022/12/12 09:32:23;;;;;;;47.85;23.35;;;3.60;99.90;;;;;;4974091;28;20527;-83
2022/12/12 09:34:50;;;;;;;42.80;21.90;;;3.70;99.90;;;;;;4990252;28;20434;-83
2022/12/12 09:37:19;;;;;;;47.67;23.27;;;3.70;99.90;;;;;;4990710;28;20564;-83
2022/12/12 09:39:46;;;;;;;42.53;20.10;;;3.70;99.90;;;;;;4990870;28;20089;-83
2022/12/12 09:42:20;;;;;;;39.92;20.83;;;3.70;99.90;;;;;;4987504;28;20038;-83
2022/12/12 09:44:49;;;;;;;37.85;18.95;;;3.70;99.90;;;;;;4971221;28;20450;-83
2022/12/12 09:47:20;;;;;;;35.50;18.65;;;3.80;99.90;;;;;;4989977;28;20081;-83
2022/12/12 09:49:48;;;;;;;43.25;20.27;;;3.80;99.90;;;;;;4989128;28;20515;-83
2022/12/12 09:52:16;;;;;;;41.38;18.90;;;3.80;99.90;;;;;;4987085;28;20069;-83
2022/12/12 09:54:43;;;;;;;38.00;18.73;;;3.80;99.90;;;;;;4989480;28;20066;-83
2022/12/12 09:57:21;;;;;;;39.10;19.25;;;3.80;99.90;;;;;;4990331;28;20064;-83
2022/12/12 09:59:53;;;;;;;42.40;19.17;;;3.80;99.90;;;;;;4990643;28;20117;-83
2022/12/12 10:02:44;;;;;;;35.25;17.73;;;3.90;99.90;;;;;;4989773;28;20042;-83
2022/12/12 10:05:20;;;;;;;36.00;18.13;;;3.90;99.90;;;;;;4983155;28;20066;-82
2022/12/12 10:07:54;;;;;;;39.28;17.70;;;3.90;99.90;;;;;;4982601;28;20510;-83
2022/12/12 10:17:58;;;;;;;32.03;16.10;;;3.90;99.90;;;;;;4985269;28;20492;-81
2022/12/12 10:20:27;;;;;;;34.40;15.65;;;3.90;99.90;;;;;;4984888;28;20042;-81
2022/12/12 10:22:59;;;;;;;31.73;17.13;;;4.00;99.90;;;;;;4986424;28;20840;-81
2022/12/12 10:25:34;;;;;;;35.88;17.40;;;4.00;99.90;;;;;;4989911;28;20141;-81
2022/12/12 10:28:09;;;;;;;32.95;17.48;;;4.00;99.90;;;;;;4972509;28;20553;-82
2022/12/12 10:30:44;;;;;;;34.85;17.15;;;4.10;99.90;;;;;;4988886;28;20049;-84
2022/12/12 10:33:19;;;;;;;32.35;17.08;;;4.00;99.90;;;;;;4982788;28;20125;-85
2022/12/12 10:35:55;;;;;;;33.50;17.25;;;4.10;99.90;;;;;;4988965;28;20538;-84
2022/12/12 10:38:33;;;;;;;32.83;16.90;;;4.10;99.90;;;;;;4989280;28;20042;-84
2022/12/12 10:41:05;;;;;;;39.38;17.70;;;4.10;99.90;;;;;;4990052;28;20042;-85
2022/12/12 10:43:37;;;;;;;32.83;16.25;;;4.10;99.90;;;;;;4989864;28;20070;-84
2022/12/12 10:46:19;;;;;;;38.85;17.13;;;4.10;99.90;;;;;;4989866;28;20121;-84
2022/12/12 10:48:48;;;;;;;30.58;16.20;;;4.10;99.90;;;;;;4988592;28;20108;-84
2022/12/12 10:51:17;;;;;;;33.92;17.27;;;4.20;99.90;;;;;;4983136;28;20038;-85
2022/12/12 10:53:44;;;;;;;31.17;15.85;;;4.40;99.90;;;;;;4988127;28;20333;-84
2022/12/12 10:56:13;;;;;;;32.80;16.92;;;4.20;99.90;;;;;;4989717;28;20136;-84
2022/12/12 10:58:42;;;;;;;32.83;16.95;;;4.20;99.90;;;;;;4970579;28;20051;-85
2022/12/12 11:01:13;;;;;;;33.57;17.40;;;4.30;99.90;;;;;;4975188;28;20053;-84
2022/12/12 11:03:42;;;;;;;33.50;17.30;;;4.30;99.90;;;;;;4989485;28;20089;-85
2022/12/12 11:06:13;;;;;;;32.30;17.70;;;4.30;99.90;;;;;;4989971;28;20511;-84
2022/12/12 11:08:52;;;;;;;36.00;17.58;;;4.30;99.90;;;;;;4986193;28;20057;-84
2022/12/12 11:11:23;;;;;;;36.15;17.92;;;4.30;99.90;;;;;;4989635;28;20126;-84
2022/12/12 11:13:52;;;;;;;37.47;19.10;;;4.30;99.90;;;;;;4988653;28;20046;-84
2022/12/12 11:16:22;;;;;;;39.47;18.05;;;4.30;99.90;;;;;;4979675;28;20134;-84
2022/12/12 11:19:06;;;;;;;33.78;17.15;;;4.30;99.90;;;;;;4972186;28;20443;-84
2022/12/12 11:21:38;;;;;;;33.83;17.35;;;4.30;99.90;;;;;;4986612;28;20754;-84
2022/12/12 11:24:08;;;;;;;35.65;16.85;;;4.30;99.90;;;;;;4984117;28;20069;-85
2022/12/12 11:26:42;;;;;;;38.78;17.80;;;4.30;99.90;;;;;;4989434;28;20042;-84
2022/12/12 11:29:23;;;;;;;33.92;16.30;;;4.40;99.90;;;;;;4988956;28;20042;-84
2022/12/12 11:31:50;;;;;;;34.17;16.45;;;4.40;99.90;;;;;;4982506;28;20506;-85
2022/12/12 11:34:17;;;;;;;32.30;16.52;;;4.40;99.90;;;;;;4989442;28;20042;-85
2022/12/12 11:36:46;;;;;;;33.33;16.30;;;4.40;99.90;;;;;;4985219;28;20704;-84
2022/12/12 11:39:18;;;;;;;29.77;15.65;;;4.40;99.90;;;;;;4971666;28;20137;-85
2022/12/12 11:42:00;;;;;;;31.13;16.38;;;4.40;99.90;;;;;;4969550;28;20050;-85
2022/12/12 11:44:31;;;;;;;35.42;16.50;;;4.40;99.90;;;;;;4983999;28;20051;-84
2022/12/12 11:47:20;;;;;;;33.67;16.23;;;4.40;99.90;;;;;;4989650;28;20746;-84
2022/12/12 11:49:47;;;;;;;32.55;15.57;;;4.40;99.90;;;;;;4990091;28;20130;-94
2022/12/12 11:52:21;;;;;;;32.90;16.25;;;4.40;99.90;;;;;;4994278;28;20565;-86
2022/12/12 11:54:48;;;;;;;29.75;15.40;;;4.40;99.90;;;;;;5006043;28;20124;-83
2022/12/12 11:57:23;;;;;;;31.20;15.93;;;4.40;99.90;;;;;;4991140;28;20046;-81
2022/12/12 12:00:04;;;;;;;29.35;15.02;;;4.40;99.90;;;;;;4989336;28;20074;-81
2022/12/12 12:02:50;;;;;;;27.67;14.35;;;4.40;99.90;;;;;;4984787;28;20066;-85
2022/12/12 12:05:25;;;;;;;30.35;14.45;;;4.50;99.90;;;;;;4988059;28;20510;-84
2022/12/12 12:08:05;;;;;;;28.77;15.13;;;4.50;99.90;;;;;;4980089;28;20051;-86
2022/12/12 12:10:45;;;;;;;28.60;15.10;;;4.50;99.90;;;;;;4986979;28;20156;-89
2022/12/12 12:13:22;;;;;;;29.67;15.32;;;4.50;99.90;;;;;;4994010;28;20125;-84
2022/12/12 12:15:54;;;;;;;28.90;14.52;;;4.50;99.90;;;;;;4986146;28;20511;-87
2022/12/12 12:18:34;;;;;;;26.90;14.13;;;4.50;99.90;;;;;;4987978;28;20052;-86
2022/12/12 12:21:16;;;;;;;28.73;13.05;;;4.50;99.90;;;;;;4990917;28;20503;-87
2022/12/12 12:23:50;;;;;;;29.17;14.27;;;4.60;99.90;;;;;;4972958;28;20054;-91
2022/12/12 12:26:23;;;;;;;27.48;14.18;;;4.50;99.90;;;;;;4990255;28;20754;-83
2022/12/12 12:29:30;;;;;;;28.00;14.05;;;4.50;99.90;;;;;;4991996;28;20046;-83
2022/12/12 12:32:05;;;;;;;28.48;13.98;;;4.50;99.90;;;;;;4903324;29;20122;-85
2022/12/12 12:34:38;;;;;;;28.52;13.82;;;4.60;99.90;;;;;;4970071;28;20094;-82
2022/12/12 12:37:16;;;;;;;27.52;13.63;;;4.50;99.90;;;;;;4988345;28;20499;-81
2022/12/12 12:40:00;;;;;;;27.83;13.20;;;4.60;99.90;;;;;;4995899;28;20061;-81
2022/12/12 12:42:40;;;;;;;29.73;14.07;;;4.60;99.90;;;;;;4986255;28;20113;-81
2022/12/12 12:45:14;;;;;;;30.45;14.23;;;4.60;99.90;;;;;;4966754;28;20051;-82
2022/12/12 12:47:47;;;;;;;30.17;14.38;;;4.60;99.90;;;;;;4991722;28;20042;-86
2022/12/12 12:50:18;;;;;;;31.58;14.85;;;4.60;99.90;;;;;;4992903;28;20050;-80
2022/12/12 12:52:50;;;;;;;28.20;14.20;;;4.60;99.90;;;;;;4994980;28;20037;-80
2022/12/12 12:55:22;;;;;;;40.38;14.32;;;4.60;99.90;;;;;;4993384;28;20541;-79
2022/12/12 12:57:51;;;;;;;31.40;14.32;;;4.60;99.90;;;;;;4980958;28;20041;-80
2022/12/12 13:00:20;;;;;;;29.98;14.55;;;4.60;99.90;;;;;;4985746;28;20053;-80
2022/12/12 13:02:53;;;;;;;40.33;15.00;;;4.60;99.90;;;;;;4991687;28;20145;-85
2022/12/12 13:05:23;;;;;;;35.85;14.57;;;4.70;99.90;;;;;;4972174;28;20061;-82
2022/12/12 13:07:54;;;;;;;33.57;15.33;;;4.70;99.90;;;;;;4988837;28;20411;-79
2022/12/12 13:10:25;;;;;;;31.73;15.05;;;4.60;99.90;;;;;;4992538;28;20527;-82
2022/12/12 13:12:55;;;;;;;36.17;15.52;;;4.70;99.90;;;;;;4991404;28;20042;-80